This is the latest recevied weather packets stored in our database for station/object DO2TC-13. If no packets are shown the sender has not sent any weather packets the latest 10 day(s).
| Time | Temp. | Humidity | Pressure | Rain* | Wind** | Luminosity | Snow |
|---|---|---|---|---|---|---|---|
| 1777689322 | - | - | 1022.8 hPa | 0 mm | - | 0 W/m² | - |
| 1777685145 | - | - | 1023.4 hPa | 0 mm | - | 0 W/m² | - |
| 1777680367 | - | - | 1024 hPa | 0 mm | - | 0 W/m² | - |
| 1777674376 | - | - | 1024.5 hPa | 0 mm | - | 0 W/m² | - |
| 1777671973 | - | - | 1024.6 hPa | 0 mm | - | 0 W/m² | - |
| 1777670742 | - | - | 1024.6 hPa | 0 mm | - | 0 W/m² | - |
| 1777665358 | 10.56° C | 68% | 1025.1 hPa | 0 mm | - | 0 W/m² | - |
| 1777664753 | 11.11° C | 67% | 1025.1 hPa | 0 mm | - | 0 W/m² | - |
| 1777662942 | 12.22° C | 61% | 1025.1 hPa | 0 mm | - | 0 W/m² | - |
| 1777662333 | 12.78° C | 59% | 1025.1 hPa | 0 mm | - | 0 W/m² | - |
| 1777658784 | 17.22° C | 45% | 1025.1 hPa | 0 mm | - | 21 W/m² | - |
| 1777658156 | 17.22° C | 45% | 1025 hPa | 0 mm | - | 32 W/m² | - |
| 1777656948 | 18.33° C | 42% | 1025.2 hPa | 0 mm | - | 57 W/m² | - |
| 1777654524 | 20° C | 41% | 1025.3 hPa | 0 mm | - | 135 W/m² | - |
| 1777645566 | 23.33° C | 32% | 1026.4 hPa | 0 mm | - | 544 W/m² | - |
| 1777644357 | 23.89° C | 33% | 1026.4 hPa | 0 mm | - | 595 W/m² | - |
| 1777640121 | 23.33° C | 34% | 1027.1 hPa | 0 mm | - | 744 W/m² | - |
| 1777635341 | 22.78° C | 36% | 1027.5 hPa | 0 mm | - | 830 W/m² | - |
| 1777630557 | 21.11° C | 39% | 1027.9 hPa | 0 mm | - | 814 W/m² | - |
| 1777620938 | 16.67° C | 48% | 1028.2 hPa | 0 mm | - | 502 W/m² | - |
| 1777620333 | 16.11° C | 50% | 1028.3 hPa | 0 mm | - | 473 W/m² | - |
| 1777619731 | 16.11° C | 54% | 1028.3 hPa | 0 mm | - | 444 W/m² | - |
| 1777619142 | 15.56° C | 56% | 1028.3 hPa | 0 mm | - | 415 W/m² | - |
| 1777618519 | 14.44° C | 58% | 1028.3 hPa | 0 mm | - | 385 W/m² | - |
| 1777615550 | 11.67° C | 66% | 1028.2 hPa | 0 mm | - | 237 W/m² | - |
* Rain latest hour (hover to see other rain measurements)
** Current wind speed in m/s (hover to see current wind gust speed)